sensor_id;sensor_type;location;lat;lon;timestamp;temperature;humidity
21019;DHT22;10667;51.056;3.732;2023-07-08T00:01:11;23.90;99.90
21019;DHT22;10667;51.056;3.732;2023-07-08T00:03:37;23.90;99.90
21019;DHT22;10667;51.056;3.732;2023-07-08T00:06:03;23.80;99.20
21019;DHT22;10667;51.056;3.732;2023-07-08T00:08:28;23.80;98.30
21019;DHT22;10667;51.056;3.732;2023-07-08T00:10:55;23.80;97.80
21019;DHT22;10667;51.056;3.732;2023-07-08T00:13:21;23.80;97.10
21019;DHT22;10667;51.056;3.732;2023-07-08T00:15:46;23.80;97.40
21019;DHT22;10667;51.056;3.732;2023-07-08T00:18:15;23.80;97.70
21019;DHT22;10667;51.056;3.732;2023-07-08T00:20:47;23.70;99.90
21019;DHT22;10667;51.056;3.732;2023-07-08T00:23:14;23.70;99.90
21019;DHT22;10667;51.056;3.732;2023-07-08T00:25:40;23.70;99.90
21019;DHT22;10667;51.056;3.732;2023-07-08T00:28:14;23.70;99.90
21019;DHT22;10667;51.056;3.732;2023-07-08T00:30:40;23.60;99.60
21019;DHT22;10667;51.056;3.732;2023-07-08T00:33:06;23.60;99.90
21019;DHT22;10667;51.056;3.732;2023-07-08T00:35:37;23.60;99.50
21019;DHT22;10667;51.056;3.732;2023-07-08T00:38:14;23.50;99.10
21019;DHT22;10667;51.056;3.732;2023-07-08T00:40:50;23.50;98.00
21019;DHT22;10667;51.056;3.732;2023-07-08T00:43:17;23.50;98.10
21019;DHT22;10667;51.056;3.732;2023-07-08T00:45:48;23.40;99.90
21019;DHT22;10667;51.056;3.732;2023-07-08T00:48:27;23.40;99.10
21019;DHT22;10667;51.056;3.732;2023-07-08T00:50:54;23.40;99.10
21019;DHT22;10667;51.056;3.732;2023-07-08T00:53:36;23.40;99.30
21019;DHT22;10667;51.056;3.732;2023-07-08T00:56:12;23.40;99.90
21019;DHT22;10667;51.056;3.732;2023-07-08T00:58:45;23.30;99.90
21019;DHT22;10667;51.056;3.732;2023-07-08T01:01:12;23.20;99.30
21019;DHT22;10667;51.056;3.732;2023-07-08T01:04:00;23.20;99.70
21019;DHT22;10667;51.056;3.732;2023-07-08T01:06:28;23.30;99.70
21019;DHT22;10667;51.056;3.732;2023-07-08T01:09:01;23.20;99.90
21019;DHT22;10667;51.056;3.732;2023-07-08T01:11:28;23.20;99.90
21019;DHT22;10667;51.056;3.732;2023-07-08T01:13:54;23.20;99.90
21019;DHT22;10667;51.056;3.732;2023-07-08T01:16:21;23.20;99.60
21019;DHT22;10667;51.056;3.732;2023-07-08T01:18:48;23.10;99.10
21019;DHT22;10667;51.056;3.732;2023-07-08T01:21:37;23.10;98.90
21019;DHT22;10667;51.056;3.732;2023-07-08T01:24:06;23.10;99.30
21019;DHT22;10667;51.056;3.732;2023-07-08T01:26:36;23.00;99.90
21019;DHT22;10667;51.056;3.732;2023-07-08T01:29:03;23.00;99.90
21019;DHT22;10667;51.056;3.732;2023-07-08T01:31:29;23.00;99.90
21019;DHT22;10667;51.056;3.732;2023-07-08T01:33:55;23.00;99.90
21019;DHT22;10667;51.056;3.732;2023-07-08T01:36:21;22.90;99.90
21019;DHT22;10667;51.056;3.732;2023-07-08T01:38:47;22.90;99.90
21019;DHT22;10667;51.056;3.732;2023-07-08T01:41:15;22.90;99.90
21019;DHT22;10667;51.056;3.732;2023-07-08T01:43:42;22.80;99.90
21019;DHT22;10667;51.056;3.732;2023-07-08T01:46:18;22.80;99.90
21019;DHT22;10667;51.056;3.732;2023-07-08T01:48:48;22.80;99.90
21019;DHT22;10667;51.056;3.732;2023-07-08T01:51:15;22.70;99.90
21019;DHT22;10667;51.056;3.732;2023-07-08T01:53:42;22.70;99.90
21019;DHT22;10667;51.056;3.732;2023-07-08T01:56:09;22.70;99.90
21019;DHT22;10667;51.056;3.732;2023-07-08T01:58:35;22.70;99.90
21019;DHT22;10667;51.056;3.732;2023-07-08T02:01:02;22.70;99.90
21019;DHT22;10667;51.056;3.732;2023-07-08T02:03:28;22.60;99.90
21019;DHT22;10667;51.056;3.732;2023-07-08T02:05:54;22.60;99.90
21019;DHT22;10667;51.056;3.732;2023-07-08T02:08:20;22.60;99.90
21019;DHT22;10667;51.056;3.732;2023-07-08T02:10:49;22.60;99.90
21019;DHT22;10667;51.056;3.732;2023-07-08T02:13:15;22.60;99.90
21019;DHT22;10667;51.056;3.732;2023-07-08T02:15:41;22.50;99.90
21019;DHT22;10667;51.056;3.732;2023-07-08T02:18:07;22.50;99.90
21019;DHT22;10667;51.056;3.732;2023-07-08T02:20:32;22.50;99.90
21019;DHT22;10667;51.056;3.732;2023-07-08T02:22:58;22.40;99.90
21019;DHT22;10667;51.056;3.732;2023-07-08T02:25:24;22.40;99.90
21019;DHT22;10667;51.056;3.732;2023-07-08T02:27:49;22.40;99.90
21019;DHT22;10667;51.056;3.732;2023-07-08T02:30:15;22.40;99.90
21019;DHT22;10667;51.056;3.732;2023-07-08T02:32:41;22.40;99.90
21019;DHT22;10667;51.056;3.732;2023-07-08T02:35:08;22.30;99.90
21019;DHT22;10667;51.056;3.732;2023-07-08T02:37:34;22.30;99.90
21019;DHT22;10667;51.056;3.732;2023-07-08T02:40:00;22.20;99.90
21019;DHT22;10667;51.056;3.732;2023-07-08T02:42:26;22.20;99.90
21019;DHT22;10667;51.056;3.732;2023-07-08T02:44:52;22.20;99.90
21019;DHT22;10667;51.056;3.732;2023-07-08T02:47:18;22.20;99.90
21019;DHT22;10667;51.056;3.732;2023-07-08T02:49:43;22.20;99.90
21019;DHT22;10667;51.056;3.732;2023-07-08T02:52:09;22.20;99.90
21019;DHT22;10667;51.056;3.732;2023-07-08T02:54:35;22.10;99.90
21019;DHT22;10667;51.056;3.732;2023-07-08T02:57:00;22.10;99.90
21019;DHT22;10667;51.056;3.732;2023-07-08T02:59:26;22.10;99.90
21019;DHT22;10667;51.056;3.732;2023-07-08T03:01:55;22.10;99.90
21019;DHT22;10667;51.056;3.732;2023-07-08T03:04:20;22.10;99.90
21019;DHT22;10667;51.056;3.732;2023-07-08T03:06:49;22.00;99.90
21019;DHT22;10667;51.056;3.732;2023-07-08T03:09:16;22.00;99.90
21019;DHT22;10667;51.056;3.732;2023-07-08T03:11:43;22.00;99.90
21019;DHT22;10667;51.056;3.732;2023-07-08T03:14:08;22.00;99.90
21019;DHT22;10667;51.056;3.732;2023-07-08T03:16:34;22.00;99.90
21019;DHT22;10667;51.056;3.732;2023-07-08T03:19:00;21.90;99.90
21019;DHT22;10667;51.056;3.732;2023-07-08T03:21:25;22.00;99.90
21019;DHT22;10667;51.056;3.732;2023-07-08T03:23:52;21.90;99.90
21019;DHT22;10667;51.056;3.732;2023-07-08T03:26:25;22.00;99.90
21019;DHT22;10667;51.056;3.732;2023-07-08T03:28:51;22.00;99.90
21019;DHT22;10667;51.056;3.732;2023-07-08T03:31:18;21.90;99.90
21019;DHT22;10667;51.056;3.732;2023-07-08T03:33:44;21.90;99.90
21019;DHT22;10667;51.056;3.732;2023-07-08T03:36:13;21.90;99.90
21019;DHT22;10667;51.056;3.732;2023-07-08T03:38:51;21.90;99.90
21019;DHT22;10667;51.056;3.732;2023-07-08T03:41:17;21.90;99.90
21019;DHT22;10667;51.056;3.732;2023-07-08T03:43:43;21.90;99.90
21019;DHT22;10667;51.056;3.732;2023-07-08T03:46:11;21.80;99.90
21019;DHT22;10667;51.056;3.732;2023-07-08T03:48:37;21.80;99.90
21019;DHT22;10667;51.056;3.732;2023-07-08T03:51:03;21.80;99.90
21019;DHT22;10667;51.056;3.732;2023-07-08T03:53:29;21.80;99.90
21019;DHT22;10667;51.056;3.732;2023-07-08T03:55:54;21.80;99.90
21019;DHT22;10667;51.056;3.732;2023-07-08T03:58:20;21.80;99.90
21019;DHT22;10667;51.056;3.732;2023-07-08T04:00:45;21.80;99.90
21019;DHT22;10667;51.056;3.732;2023-07-08T04:03:11;21.80;99.90
21019;DHT22;10667;51.056;3.732;2023-07-08T04:05:37;21.80;99.90
21019;DHT22;10667;51.056;3.732;2023-07-08T04:08:03;21.80;99.90
21019;DHT22;10667;51.056;3.732;2023-07-08T04:10:29;21.80;99.90
21019;DHT22;10667;51.056;3.732;2023-07-08T04:12:54;21.80;99.90
21019;DHT22;10667;51.056;3.732;2023-07-08T04:15:20;21.70;99.90
21019;DHT22;10667;51.056;3.732;2023-07-08T04:17:50;21.80;99.90
21019;DHT22;10667;51.056;3.732;2023-07-08T04:20:18;21.80;99.90
21019;DHT22;10667;51.056;3.732;2023-07-08T04:22:44;21.80;99.90
21019;DHT22;10667;51.056;3.732;2023-07-08T04:25:12;21.70;99.90
21019;DHT22;10667;51.056;3.732;2023-07-08T04:27:38;21.70;99.90
21019;DHT22;10667;51.056;3.732;2023-07-08T04:30:05;21.70;99.90
21019;DHT22;10667;51.056;3.732;2023-07-08T04:32:30;21.70;99.90
21019;DHT22;10667;51.056;3.732;2023-07-08T04:34:56;21.70;99.90
21019;DHT22;10667;51.056;3.732;2023-07-08T04:37:22;21.60;99.90
21019;DHT22;10667;51.056;3.732;2023-07-08T04:39:47;21.60;99.90
21019;DHT22;10667;51.056;3.732;2023-07-08T04:42:14;21.60;99.90
21019;DHT22;10667;51.056;3.732;2023-07-08T04:44:42;21.60;99.90
21019;DHT22;10667;51.056;3.732;2023-07-08T04:47:08;21.60;99.90
21019;DHT22;10667;51.056;3.732;2023-07-08T04:49:34;21.60;99.90
21019;DHT22;10667;51.056;3.732;2023-07-08T04:52:01;21.60;99.90
21019;DHT22;10667;51.056;3.732;2023-07-08T04:54:28;21.60;99.90
21019;DHT22;10667;51.056;3.732;2023-07-08T04:56:54;21.50;99.90
21019;DHT22;10667;51.056;3.732;2023-07-08T04:59:22;21.50;99.90
21019;DHT22;10667;51.056;3.732;2023-07-08T05:01:49;21.50;99.90
21019;DHT22;10667;51.056;3.732;2023-07-08T05:04:16;21.50;99.90
21019;DHT22;10667;51.056;3.732;2023-07-08T05:06:42;21.50;99.90
21019;DHT22;10667;51.056;3.732;2023-07-08T05:09:08;21.60;99.90
21019;DHT22;10667;51.056;3.732;2023-07-08T05:11:34;21.60;99.90
21019;DHT22;10667;51.056;3.732;2023-07-08T05:14:01;21.60;99.90
21019;DHT22;10667;51.056;3.732;2023-07-08T05:16:27;21.50;99.90
21019;DHT22;10667;51.056;3.732;2023-07-08T05:18:52;21.60;99.90
21019;DHT22;10667;51.056;3.732;2023-07-08T05:21:19;21.60;99.90
21019;DHT22;10667;51.056;3.732;2023-07-08T05:23:46;21.60;99.90
21019;DHT22;10667;51.056;3.732;2023-07-08T05:26:15;21.60;99.90
21019;DHT22;10667;51.056;3.732;2023-07-08T05:28:41;21.60;99.90
21019;DHT22;10667;51.056;3.732;2023-07-08T05:31:07;21.70;99.90
21019;DHT22;10667;51.056;3.732;2023-07-08T05:33:33;21.60;99.90
21019;DHT22;10667;51.056;3.732;2023-07-08T05:35:59;21.60;99.90
21019;DHT22;10667;51.056;3.732;2023-07-08T05:38:26;21.60;99.90
21019;DHT22;10667;51.056;3.732;2023-07-08T05:40:57;21.70;99.90
21019;DHT22;10667;51.056;3.732;2023-07-08T05:43:24;21.70;99.90
21019;DHT22;10667;51.056;3.732;2023-07-08T05:45:49;21.70;99.90
21019;DHT22;10667;51.056;3.732;2023-07-08T05:48:15;21.80;99.90
21019;DHT22;10667;51.056;3.732;2023-07-08T05:50:41;21.80;99.90
21019;DHT22;10667;51.056;3.732;2023-07-08T05:53:10;21.80;99.90
21019;DHT22;10667;51.056;3.732;2023-07-08T05:55:37;21.80;99.90
21019;DHT22;10667;51.056;3.732;2023-07-08T05:58:03;21.90;99.90
21019;DHT22;10667;51.056;3.732;2023-07-08T06:00:28;21.90;99.90
21019;DHT22;10667;51.056;3.732;2023-07-08T06:02:54;22.00;99.90
21019;DHT22;10667;51.056;3.732;2023-07-08T06:05:20;22.00;99.90
21019;DHT22;10667;51.056;3.732;2023-07-08T06:07:45;22.00;99.90
21019;DHT22;10667;51.056;3.732;2023-07-08T06:10:11;22.10;99.90
21019;DHT22;10667;51.056;3.732;2023-07-08T06:12:37;22.10;99.90
21019;DHT22;10667;51.056;3.732;2023-07-08T06:15:03;22.10;99.90
21019;DHT22;10667;51.056;3.732;2023-07-08T06:17:29;22.20;99.90
21019;DHT22;10667;51.056;3.732;2023-07-08T06:19:54;22.20;99.90
21019;DHT22;10667;51.056;3.732;2023-07-08T06:22:20;22.30;99.90
21019;DHT22;10667;51.056;3.732;2023-07-08T06:24:46;22.30;99.90
21019;DHT22;10667;51.056;3.732;2023-07-08T06:27:13;22.30;99.90
21019;DHT22;10667;51.056;3.732;2023-07-08T06:29:38;22.40;99.90
21019;DHT22;10667;51.056;3.732;2023-07-08T06:32:04;22.50;99.90
21019;DHT22;10667;51.056;3.732;2023-07-08T06:34:30;22.50;99.90
21019;DHT22;10667;51.056;3.732;2023-07-08T06:36:56;22.60;99.90
21019;DHT22;10667;51.056;3.732;2023-07-08T06:39:21;22.70;99.90
21019;DHT22;10667;51.056;3.732;2023-07-08T06:41:47;22.70;99.90
21019;DHT22;10667;51.056;3.732;2023-07-08T06:44:13;22.80;99.90
21019;DHT22;10667;51.056;3.732;2023-07-08T06:46:38;22.80;99.90
21019;DHT22;10667;51.056;3.732;2023-07-08T06:49:04;22.90;99.90
21019;DHT22;10667;51.056;3.732;2023-07-08T06:51:34;22.90;99.90
21019;DHT22;10667;51.056;3.732;2023-07-08T06:54:00;23.00;99.90
21019;DHT22;10667;51.056;3.732;2023-07-08T06:56:30;23.00;99.90
21019;DHT22;10667;51.056;3.732;2023-07-08T06:58:55;23.10;99.90
21019;DHT22;10667;51.056;3.732;2023-07-08T07:01:21;23.20;99.90
21019;DHT22;10667;51.056;3.732;2023-07-08T07:03:46;23.30;99.90
21019;DHT22;10667;51.056;3.732;2023-07-08T07:06:12;23.40;99.90
21019;DHT22;10667;51.056;3.732;2023-07-08T07:08:38;23.40;99.90
21019;DHT22;10667;51.056;3.732;2023-07-08T07:11:03;23.60;99.90
21019;DHT22;10667;51.056;3.732;2023-07-08T07:13:29;23.70;99.90
21019;DHT22;10667;51.056;3.732;2023-07-08T07:15:55;23.80;99.90
21019;DHT22;10667;51.056;3.732;2023-07-08T07:18:20;23.90;99.90
21019;DHT22;10667;51.056;3.732;2023-07-08T07:20:50;23.90;99.90
21019;DHT22;10667;51.056;3.732;2023-07-08T07:23:16;24.10;99.90
21019;DHT22;10667;51.056;3.732;2023-07-08T07:25:42;24.10;99.90
21019;DHT22;10667;51.056;3.732;2023-07-08T07:28:08;24.10;99.90
21019;DHT22;10667;51.056;3.732;2023-07-08T07:30:33;24.20;99.90
21019;DHT22;10667;51.056;3.732;2023-07-08T07:33:00;24.30;99.90
21019;DHT22;10667;51.056;3.732;2023-07-08T07:35:26;24.40;99.90
21019;DHT22;10667;51.056;3.732;2023-07-08T07:37:51;24.60;99.90
21019;DHT22;10667;51.056;3.732;2023-07-08T07:40:17;24.70;99.90
21019;DHT22;10667;51.056;3.732;2023-07-08T07:42:45;24.80;99.90
21019;DHT22;10667;51.056;3.732;2023-07-08T07:45:12;24.90;99.90
21019;DHT22;10667;51.056;3.732;2023-07-08T07:47:38;25.10;99.90
21019;DHT22;10667;51.056;3.732;2023-07-08T07:50:05;25.20;99.90
21019;DHT22;10667;51.056;3.732;2023-07-08T07:52:31;25.30;99.90
21019;DHT22;10667;51.056;3.732;2023-07-08T07:54:57;25.40;99.90
21019;DHT22;10667;51.056;3.732;2023-07-08T07:57:23;25.50;99.90
21019;DHT22;10667;51.056;3.732;2023-07-08T07:59:49;25.60;99.90
21019;DHT22;10667;51.056;3.732;2023-07-08T08:02:16;25.80;99.90
21019;DHT22;10667;51.056;3.732;2023-07-08T08:04:42;25.90;99.90
21019;DHT22;10667;51.056;3.732;2023-07-08T08:07:07;26.00;99.90
21019;DHT22;10667;51.056;3.732;2023-07-08T08:09:33;26.10;99.90
21019;DHT22;10667;51.056;3.732;2023-07-08T08:12:01;26.30;99.90
21019;DHT22;10667;51.056;3.732;2023-07-08T08:14:27;26.40;99.90
21019;DHT22;10667;51.056;3.732;2023-07-08T08:16:53;26.50;99.90
21019;DHT22;10667;51.056;3.732;2023-07-08T08:19:19;26.60;99.90
21019;DHT22;10667;51.056;3.732;2023-07-08T08:21:44;26.70;99.90
21019;DHT22;10667;51.056;3.732;2023-07-08T08:24:10;26.90;99.90
21019;DHT22;10667;51.056;3.732;2023-07-08T08:26:35;27.00;99.90
21019;DHT22;10667;51.056;3.732;2023-07-08T08:29:02;27.20;99.90
21019;DHT22;10667;51.056;3.732;2023-07-08T08:31:27;27.30;99.90
21019;DHT22;10667;51.056;3.732;2023-07-08T08:33:53;27.40;99.40
21019;DHT22;10667;51.056;3.732;2023-07-08T08:36:19;27.40;98.50
21019;DHT22;10667;51.056;3.732;2023-07-08T08:38:46;27.50;98.10
21019;DHT22;10667;51.056;3.732;2023-07-08T08:41:13;27.60;97.20
21019;DHT22;10667;51.056;3.732;2023-07-08T08:43:40;27.60;97.60
21019;DHT22;10667;51.056;3.732;2023-07-08T08:46:12;27.60;97.20
21019;DHT22;10667;51.056;3.732;2023-07-08T08:49:12;27.70;97.40
21019;DHT22;10667;51.056;3.732;2023-07-08T08:51:32;27.80;97.20
21019;DHT22;10667;51.056;3.732;2023-07-08T08:53:58;27.90;96.70
21019;DHT22;10667;51.056;3.732;2023-07-08T08:56:28;28.00;95.90
21019;DHT22;10667;51.056;3.732;2023-07-08T09:01:47;28.20;94.90
21019;DHT22;10667;51.056;3.732;2023-07-08T09:04:19;28.30;94.20
21019;DHT22;10667;51.056;3.732;2023-07-08T09:06:46;28.40;94.10
21019;DHT22;10667;51.056;3.732;2023-07-08T09:09:37;28.60;94.00
21019;DHT22;10667;51.056;3.732;2023-07-08T09:12:13;28.80;93.50
21019;DHT22;10667;51.056;3.732;2023-07-08T09:14:42;29.00;92.80
21019;DHT22;10667;51.056;3.732;2023-07-08T09:17:21;29.10;92.30
21019;DHT22;10667;51.056;3.732;2023-07-08T09:20:07;29.40;91.10
21019;DHT22;10667;51.056;3.732;2023-07-08T09:22:53;29.60;89.80
21019;DHT22;10667;51.056;3.732;2023-07-08T09:25:34;29.70;88.00
21019;DHT22;10667;51.056;3.732;2023-07-08T09:28:01;30.00;88.40
21019;DHT22;10667;51.056;3.732;2023-07-08T09:30:27;30.10;86.00
21019;DHT22;10667;51.056;3.732;2023-07-08T09:32:54;30.30;85.00
21019;DHT22;10667;51.056;3.732;2023-07-08T09:35:26;30.50;82.30
21019;DHT22;10667;51.056;3.732;2023-07-08T09:37:52;30.80;81.60
21019;DHT22;10667;51.056;3.732;2023-07-08T09:40:30;30.90;79.60
21019;DHT22;10667;51.056;3.732;2023-07-08T09:43:34;31.10;78.10
21019;DHT22;10667;51.056;3.732;2023-07-08T09:45:59;31.30;77.50
21019;DHT22;10667;51.056;3.732;2023-07-08T09:48:29;31.50;77.60
21019;DHT22;10667;51.056;3.732;2023-07-08T09:50:59;31.80;77.00
21019;DHT22;10667;51.056;3.732;2023-07-08T09:53:25;31.90;74.10
21019;DHT22;10667;51.056;3.732;2023-07-08T09:55:53;32.10;70.30
21019;DHT22;10667;51.056;3.732;2023-07-08T09:58:29;32.20;69.30
21019;DHT22;10667;51.056;3.732;2023-07-08T10:00:59;32.40;68.50
21019;DHT22;10667;51.056;3.732;2023-07-08T10:03:32;32.60;67.30
21019;DHT22;10667;51.056;3.732;2023-07-08T10:06:02;32.80;66.50
21019;DHT22;10667;51.056;3.732;2023-07-08T10:08:39;32.90;65.50
21019;DHT22;10667;51.056;3.732;2023-07-08T10:11:32;33.10;64.30
21019;DHT22;10667;51.056;3.732;2023-07-08T10:16:45;33.40;64.30
21019;DHT22;10667;51.056;3.732;2023-07-08T10:19:16;33.50;63.80
21019;DHT22;10667;51.056;3.732;2023-07-08T10:30:19;34.10;61.70
21019;DHT22;10667;51.056;3.732;2023-07-08T10:33:19;34.30;60.90
21019;DHT22;10667;51.056;3.732;2023-07-08T10:38:59;34.60;56.90
21019;DHT22;10667;51.056;3.732;2023-07-08T10:41:43;34.80;57.30
21019;DHT22;10667;51.056;3.732;2023-07-08T10:44:34;34.90;56.50
21019;DHT22;10667;51.056;3.732;2023-07-08T10:47:08;35.10;56.60
21019;DHT22;10667;51.056;3.732;2023-07-08T11:07:57;36.40;52.90
21019;DHT22;10667;51.056;3.732;2023-07-08T11:10:32;36.60;51.80
21019;DHT22;10667;51.056;3.732;2023-07-08T11:13:09;36.70;50.50
21019;DHT22;10667;51.056;3.732;2023-07-08T11:15:51;36.80;49.80
21019;DHT22;10667;51.056;3.732;2023-07-08T11:18:25;36.90;48.20
21019;DHT22;10667;51.056;3.732;2023-07-08T11:21:12;37.00;47.30
21019;DHT22;10667;51.056;3.732;2023-07-08T11:27:08;37.30;45.90
21019;DHT22;10667;51.056;3.732;2023-07-08T11:29:40;37.50;47.60
21019;DHT22;10667;51.056;3.732;2023-07-08T11:32:12;37.70;45.70
21019;DHT22;10667;51.056;3.732;2023-07-08T11:34:40;37.90;44.20
21019;DHT22;10667;51.056;3.732;2023-07-08T11:37:07;38.10;45.40
21019;DHT22;10667;51.056;3.732;2023-07-08T11:39:44;38.40;46.40
21019;DHT22;10667;51.056;3.732;2023-07-08T11:44:54;38.90;44.90
21019;DHT22;10667;51.056;3.732;2023-07-08T11:47:41;39.10;44.40
21019;DHT22;10667;51.056;3.732;2023-07-08T11:50:30;39.40;43.90
21019;DHT22;10667;51.056;3.732;2023-07-08T11:53:02;39.20;43.00
21019;DHT22;10667;51.056;3.732;2023-07-08T11:55:46;38.70;43.20
21019;DHT22;10667;51.056;3.732;2023-07-08T12:03:35;38.40;44.20
21019;DHT22;10667;51.056;3.732;2023-07-08T12:06:02;38.40;45.10
21019;DHT22;10667;51.056;3.732;2023-07-08T12:08:37;38.20;43.30
21019;DHT22;10667;51.056;3.732;2023-07-08T12:11:10;38.00;49.70
21019;DHT22;10667;51.056;3.732;2023-07-08T12:13:36;37.70;47.20
21019;DHT22;10667;51.056;3.732;2023-07-08T12:16:02;37.40;47.40
21019;DHT22;10667;51.056;3.732;2023-07-08T12:18:33;37.00;45.40
21019;DHT22;10667;51.056;3.732;2023-07-08T12:21:00;36.80;47.40
21019;DHT22;10667;51.056;3.732;2023-07-08T12:23:27;36.60;47.00
21019;DHT22;10667;51.056;3.732;2023-07-08T12:25:55;36.30;47.60
21019;DHT22;10667;51.056;3.732;2023-07-08T12:28:22;36.00;46.90
21019;DHT22;10667;51.056;3.732;2023-07-08T12:30:48;35.70;49.60
21019;DHT22;10667;51.056;3.732;2023-07-08T12:33:30;35.40;48.60
21019;DHT22;10667;51.056;3.732;2023-07-08T12:35:56;35.10;48.60
21019;DHT22;10667;51.056;3.732;2023-07-08T12:38:34;34.90;50.30
21019;DHT22;10667;51.056;3.732;2023-07-08T12:41:11;34.90;50.50
21019;DHT22;10667;51.056;3.732;2023-07-08T12:43:37;34.90;50.70
21019;DHT22;10667;51.056;3.732;2023-07-08T12:46:03;34.70;51.40
21019;DHT22;10667;51.056;3.732;2023-07-08T12:48:36;34.50;51.70
21019;DHT22;10667;51.056;3.732;2023-07-08T12:51:03;34.60;52.20
21019;DHT22;10667;51.056;3.732;2023-07-08T12:53:29;34.60;52.00
21019;DHT22;10667;51.056;3.732;2023-07-08T12:55:58;34.70;51.20
21019;DHT22;10667;51.056;3.732;2023-07-08T12:58:25;35.00;51.30
21019;DHT22;10667;51.056;3.732;2023-07-08T13:00:53;35.30;50.70
21019;DHT22;10667;51.056;3.732;2023-07-08T13:03:23;35.80;50.30
21019;DHT22;10667;51.056;3.732;2023-07-08T13:05:51;36.00;50.90
21019;DHT22;10667;51.056;3.732;2023-07-08T13:08:21;36.00;51.00
21019;DHT22;10667;51.056;3.732;2023-07-08T13:10:50;35.90;50.70
21019;DHT22;10667;51.056;3.732;2023-07-08T13:13:38;35.70;51.10
21019;DHT22;10667;51.056;3.732;2023-07-08T13:16:04;35.70;51.90
21019;DHT22;10667;51.056;3.732;2023-07-08T13:20:58;35.90;51.50
21019;DHT22;10667;51.056;3.732;2023-07-08T13:23:26;36.20;51.50
21019;DHT22;10667;51.056;3.732;2023-07-08T13:25:53;36.60;51.20
21019;DHT22;10667;51.056;3.732;2023-07-08T13:28:26;37.10;50.20
21019;DHT22;10667;51.056;3.732;2023-07-08T13:31:00;37.50;48.80
21019;DHT22;10667;51.056;3.732;2023-07-08T13:33:34;37.60;48.40
21019;DHT22;10667;51.056;3.732;2023-07-08T13:36:04;37.60;48.10
21019;DHT22;10667;51.056;3.732;2023-07-08T13:38:38;37.70;48.40
21019;DHT22;10667;51.056;3.732;2023-07-08T13:41:06;37.90;48.80
21019;DHT22;10667;51.056;3.732;2023-07-08T13:43:38;37.90;49.00
21019;DHT22;10667;51.056;3.732;2023-07-08T13:46:24;37.70;49.60
21019;DHT22;10667;51.056;3.732;2023-07-08T13:48:52;37.50;51.00
21019;DHT22;10667;51.056;3.732;2023-07-08T13:51:19;37.30;49.60
21019;DHT22;10667;51.056;3.732;2023-07-08T13:53:51;37.10;50.50
21019;DHT22;10667;51.056;3.732;2023-07-08T13:56:26;36.90;50.90
21019;DHT22;10667;51.056;3.732;2023-07-08T13:59:01;37.10;53.50
21019;DHT22;10667;51.056;3.732;2023-07-08T14:01:29;36.90;50.20
21019;DHT22;10667;51.056;3.732;2023-07-08T14:03:56;36.80;49.90
21019;DHT22;10667;51.056;3.732;2023-07-08T14:06:24;36.60;50.20
21019;DHT22;10667;51.056;3.732;2023-07-08T14:08:56;36.40;51.00
21019;DHT22;10667;51.056;3.732;2023-07-08T14:11:22;36.30;52.30
21019;DHT22;10667;51.056;3.732;2023-07-08T14:13:48;36.50;52.90
21019;DHT22;10667;51.056;3.732;2023-07-08T14:16:25;36.60;53.20
21019;DHT22;10667;51.056;3.732;2023-07-08T14:18:53;36.50;52.70
21019;DHT22;10667;51.056;3.732;2023-07-08T14:21:19;36.10;53.90
21019;DHT22;10667;51.056;3.732;2023-07-08T14:23:45;36.30;55.10
21019;DHT22;10667;51.056;3.732;2023-07-08T14:26:11;36.40;54.10
21019;DHT22;10667;51.056;3.732;2023-07-08T14:28:37;36.80;53.80
21019;DHT22;10667;51.056;3.732;2023-07-08T14:31:03;37.30;53.40
21019;DHT22;10667;51.056;3.732;2023-07-08T14:33:28;37.80;52.40
21019;DHT22;10667;51.056;3.732;2023-07-08T14:35:54;38.40;53.90
21019;DHT22;10667;51.056;3.732;2023-07-08T14:38:20;38.90;50.80
21019;DHT22;10667;51.056;3.732;2023-07-08T14:40:45;39.40;52.00
21019;DHT22;10667;51.056;3.732;2023-07-08T14:43:18;39.80;52.00
21019;DHT22;10667;51.056;3.732;2023-07-08T14:45:53;40.10;48.90
21019;DHT22;10667;51.056;3.732;2023-07-08T14:48:19;40.20;48.60
21019;DHT22;10667;51.056;3.732;2023-07-08T14:50:46;40.20;49.30
21019;DHT22;10667;51.056;3.732;2023-07-08T14:53:15;40.20;49.20
21019;DHT22;10667;51.056;3.732;2023-07-08T14:55:43;40.40;49.20
21019;DHT22;10667;51.056;3.732;2023-07-08T14:58:28;40.80;48.70
21019;DHT22;10667;51.056;3.732;2023-07-08T15:00:56;40.70;48.00
21019;DHT22;10667;51.056;3.732;2023-07-08T15:03:23;40.50;48.80
21019;DHT22;10667;51.056;3.732;2023-07-08T15:05:49;40.60;48.00
21019;DHT22;10667;51.056;3.732;2023-07-08T15:08:15;40.90;51.30
21019;DHT22;10667;51.056;3.732;2023-07-08T15:10:47;41.20;47.10
21019;DHT22;10667;51.056;3.732;2023-07-08T15:13:14;41.40;48.20
21019;DHT22;10667;51.056;3.732;2023-07-08T15:15:40;41.50;46.80
21019;DHT22;10667;51.056;3.732;2023-07-08T15:18:12;41.50;45.60
21019;DHT22;10667;51.056;3.732;2023-07-08T15:20:38;41.00;46.10
21019;DHT22;10667;51.056;3.732;2023-07-08T15:23:04;40.50;47.60
21019;DHT22;10667;51.056;3.732;2023-07-08T15:25:30;39.60;49.80
21019;DHT22;10667;51.056;3.732;2023-07-08T15:27:57;38.90;50.20
21019;DHT22;10667;51.056;3.732;2023-07-08T15:30:25;38.20;51.60
21019;DHT22;10667;51.056;3.732;2023-07-08T15:32:51;37.90;52.40
21019;DHT22;10667;51.056;3.732;2023-07-08T15:35:23;37.70;52.40
21019;DHT22;10667;51.056;3.732;2023-07-08T15:37:51;37.60;53.70
21019;DHT22;10667;51.056;3.732;2023-07-08T15:40:18;37.40;53.20
21019;DHT22;10667;51.056;3.732;2023-07-08T15:42:55;37.20;54.20
21019;DHT22;10667;51.056;3.732;2023-07-08T15:45:28;37.10;55.60
21019;DHT22;10667;51.056;3.732;2023-07-08T15:47:54;37.00;55.00
21019;DHT22;10667;51.056;3.732;2023-07-08T15:50:22;36.50;55.60
21019;DHT22;10667;51.056;3.732;2023-07-08T15:52:49;36.20;57.50
21019;DHT22;10667;51.056;3.732;2023-07-08T15:55:28;36.10;58.50
21019;DHT22;10667;51.056;3.732;2023-07-08T15:57:57;36.10;58.10
21019;DHT22;10667;51.056;3.732;2023-07-08T16:00:27;36.50;57.90
21019;DHT22;10667;51.056;3.732;2023-07-08T16:02:56;37.10;55.80
21019;DHT22;10667;51.056;3.732;2023-07-08T16:05:23;37.80;54.10
21019;DHT22;10667;51.056;3.732;2023-07-08T16:07:52;38.20;54.20
21019;DHT22;10667;51.056;3.732;2023-07-08T16:10:19;38.60;56.90
21019;DHT22;10667;51.056;3.732;2023-07-08T16:12:46;38.90;52.90
21019;DHT22;10667;51.056;3.732;2023-07-08T16:15:18;39.00;51.30
21019;DHT22;10667;51.056;3.732;2023-07-08T16:17:44;38.80;51.60
21019;DHT22;10667;51.056;3.732;2023-07-08T16:20:19;38.80;51.60
21019;DHT22;10667;51.056;3.732;2023-07-08T16:22:45;38.90;52.30
21019;DHT22;10667;51.056;3.732;2023-07-08T16:25:16;39.20;50.30
21019;DHT22;10667;51.056;3.732;2023-07-08T16:27:44;39.20;50.40
21019;DHT22;10667;51.056;3.732;2023-07-08T16:30:15;39.40;50.60